sensor_id;sensor_type;location;lat;lon;timestamp;P1;durP1;ratioP1;P2;durP2;ratioP2
30215;SDS011;17028;47.642;8.070;2022-08-16T00:02:59;5.13;;;3.10;;
30215;SDS011;17028;47.642;8.070;2022-08-16T00:08:01;4.55;;;3.20;;
30215;SDS011;17028;47.642;8.070;2022-08-16T00:13:04;4.20;;;3.00;;
30215;SDS011;17028;47.642;8.070;2022-08-16T00:18:08;5.20;;;3.27;;
30215;SDS011;17028;47.642;8.070;2022-08-16T00:23:12;4.07;;;3.30;;
30215;SDS011;17028;47.642;8.070;2022-08-16T00:28:14;3.92;;;3.10;;
30215;SDS011;17028;47.642;8.070;2022-08-16T00:33:15;4.55;;;3.50;;
30215;SDS011;17028;47.642;8.070;2022-08-16T00:38:16;5.93;;;3.40;;
30215;SDS011;17028;47.642;8.070;2022-08-16T00:43:22;5.30;;;3.10;;
30215;SDS011;17028;47.642;8.070;2022-08-16T00:48:28;4.28;;;3.50;;
30215;SDS011;17028;47.642;8.070;2022-08-16T00:53:30;4.90;;;3.50;;
30215;SDS011;17028;47.642;8.070;2022-08-16T00:58:33;4.30;;;3.28;;
30215;SDS011;17028;47.642;8.070;2022-08-16T01:03:36;4.88;;;3.33;;
30215;SDS011;17028;47.642;8.070;2022-08-16T01:08:39;4.70;;;3.65;;
30215;SDS011;17028;47.642;8.070;2022-08-16T01:13:42;4.78;;;3.53;;
30215;SDS011;17028;47.642;8.070;2022-08-16T01:18:45;3.67;;;2.90;;
30215;SDS011;17028;47.642;8.070;2022-08-16T01:23:57;4.38;;;2.90;;
30215;SDS011;17028;47.642;8.070;2022-08-16T01:29:20;3.83;;;2.92;;
30215;SDS011;17028;47.642;8.070;2022-08-16T01:34:26;4.90;;;3.53;;
30215;SDS011;17028;47.642;8.070;2022-08-16T01:39:28;4.40;;;3.33;;
30215;SDS011;17028;47.642;8.070;2022-08-16T01:44:30;4.50;;;3.08;;
30215;SDS011;17028;47.642;8.070;2022-08-16T01:49:33;4.15;;;3.20;;
30215;SDS011;17028;47.642;8.070;2022-08-16T01:54:35;5.32;;;4.18;;
30215;SDS011;17028;47.642;8.070;2022-08-16T01:59:37;5.22;;;4.30;;
30215;SDS011;17028;47.642;8.070;2022-08-16T02:04:39;4.47;;;3.53;;
30215;SDS011;17028;47.642;8.070;2022-08-16T02:09:40;4.50;;;3.40;;
30215;SDS011;17028;47.642;8.070;2022-08-16T02:14:41;3.17;;;2.60;;
30215;SDS011;17028;47.642;8.070;2022-08-16T02:19:43;3.42;;;2.60;;
30215;SDS011;17028;47.642;8.070;2022-08-16T02:24:45;3.78;;;2.75;;
30215;SDS011;17028;47.642;8.070;2022-08-16T02:29:46;3.83;;;3.00;;
30215;SDS011;17028;47.642;8.070;2022-08-16T02:34:48;4.68;;;3.40;;
30215;SDS011;17028;47.642;8.070;2022-08-16T02:39:49;4.10;;;2.95;;
30215;SDS011;17028;47.642;8.070;2022-08-16T02:44:50;4.50;;;3.85;;
30215;SDS011;17028;47.642;8.070;2022-08-16T02:49:51;5.20;;;4.40;;
30215;SDS011;17028;47.642;8.070;2022-08-16T02:54:53;5.63;;;4.20;;
30215;SDS011;17028;47.642;8.070;2022-08-16T02:59:54;6.03;;;4.70;;
30215;SDS011;17028;47.642;8.070;2022-08-16T03:04:56;6.63;;;5.00;;
30215;SDS011;17028;47.642;8.070;2022-08-16T03:09:57;6.35;;;4.68;;
30215;SDS011;17028;47.642;8.070;2022-08-16T03:14:59;6.30;;;4.60;;
30215;SDS011;17028;47.642;8.070;2022-08-16T03:20:01;7.72;;;5.57;;
30215;SDS011;17028;47.642;8.070;2022-08-16T03:25:13;7.25;;;5.65;;
30215;SDS011;17028;47.642;8.070;2022-08-16T03:30:26;9.90;;;7.40;;
30215;SDS011;17028;47.642;8.070;2022-08-16T03:35:33;9.32;;;7.05;;
30215;SDS011;17028;47.642;8.070;2022-08-16T03:45:50;10.07;;;7.90;;
30215;SDS011;17028;47.642;8.070;2022-08-16T03:50:52;11.52;;;8.23;;
30215;SDS011;17028;47.642;8.070;2022-08-16T03:55:54;9.55;;;7.22;;
30215;SDS011;17028;47.642;8.070;2022-08-16T04:00:55;8.70;;;7.38;;
30215;SDS011;17028;47.642;8.070;2022-08-16T04:05:57;8.75;;;7.00;;
30215;SDS011;17028;47.642;8.070;2022-08-16T04:10:59;8.02;;;6.65;;
30215;SDS011;17028;47.642;8.070;2022-08-16T04:16:01;8.20;;;6.63;;
30215;SDS011;17028;47.642;8.070;2022-08-16T04:21:03;8.23;;;6.88;;
30215;SDS011;17028;47.642;8.070;2022-08-16T04:26:06;9.93;;;7.20;;
30215;SDS011;17028;47.642;8.070;2022-08-16T04:31:11;9.65;;;7.10;;
30215;SDS011;17028;47.642;8.070;2022-08-16T04:36:15;8.18;;;6.57;;
30215;SDS011;17028;47.642;8.070;2022-08-16T04:41:17;8.18;;;6.65;;
30215;SDS011;17028;47.642;8.070;2022-08-16T04:46:19;8.57;;;6.53;;
30215;SDS011;17028;47.642;8.070;2022-08-16T04:51:20;8.68;;;6.53;;
30215;SDS011;17028;47.642;8.070;2022-08-16T04:56:23;8.85;;;6.90;;
30215;SDS011;17028;47.642;8.070;2022-08-16T05:01:26;7.13;;;6.05;;
30215;SDS011;17028;47.642;8.070;2022-08-16T05:06:28;9.20;;;6.75;;
30215;SDS011;17028;47.642;8.070;2022-08-16T05:11:31;10.13;;;7.15;;
30215;SDS011;17028;47.642;8.070;2022-08-16T05:16:32;9.88;;;7.50;;
30215;SDS011;17028;47.642;8.070;2022-08-16T05:21:43;9.10;;;7.07;;
30215;SDS011;17028;47.642;8.070;2022-08-16T05:26:45;9.63;;;7.20;;
30215;SDS011;17028;47.642;8.070;2022-08-16T05:31:47;8.52;;;6.43;;
30215;SDS011;17028;47.642;8.070;2022-08-16T05:36:50;7.00;;;5.93;;
30215;SDS011;17028;47.642;8.070;2022-08-16T05:41:55;7.53;;;6.10;;
30215;SDS011;17028;47.642;8.070;2022-08-16T05:46:57;8.10;;;5.57;;
30215;SDS011;17028;47.642;8.070;2022-08-16T05:51:59;6.47;;;5.10;;
30215;SDS011;17028;47.642;8.070;2022-08-16T05:57:00;7.10;;;5.50;;
30215;SDS011;17028;47.642;8.070;2022-08-16T06:02:03;5.60;;;4.90;;
30215;SDS011;17028;47.642;8.070;2022-08-16T06:07:08;4.70;;;4.07;;
30215;SDS011;17028;47.642;8.070;2022-08-16T06:12:11;5.28;;;4.55;;
30215;SDS011;17028;47.642;8.070;2022-08-16T06:17:13;5.57;;;4.60;;
30215;SDS011;17028;47.642;8.070;2022-08-16T06:22:16;4.93;;;4.28;;
30215;SDS011;17028;47.642;8.070;2022-08-16T06:27:17;4.03;;;3.63;;
30215;SDS011;17028;47.642;8.070;2022-08-16T06:32:18;6.30;;;5.38;;
30215;SDS011;17028;47.642;8.070;2022-08-16T06:37:20;8.65;;;5.88;;
30215;SDS011;17028;47.642;8.070;2022-08-16T06:42:21;5.90;;;5.30;;
30215;SDS011;17028;47.642;8.070;2022-08-16T06:47:35;8.07;;;5.22;;
30215;SDS011;17028;47.642;8.070;2022-08-16T06:52:37;5.03;;;4.53;;
30215;SDS011;17028;47.642;8.070;2022-08-16T06:57:40;5.68;;;4.63;;
30215;SDS011;17028;47.642;8.070;2022-08-16T07:02:42;6.13;;;4.35;;
30215;SDS011;17028;47.642;8.070;2022-08-16T07:07:46;4.50;;;4.07;;
30215;SDS011;17028;47.642;8.070;2022-08-16T07:12:49;6.33;;;4.10;;
30215;SDS011;17028;47.642;8.070;2022-08-16T07:17:51;5.68;;;4.07;;
30215;SDS011;17028;47.642;8.070;2022-08-16T07:22:54;4.80;;;3.85;;
30215;SDS011;17028;47.642;8.070;2022-08-16T07:28:00;4.65;;;3.67;;
30215;SDS011;17028;47.642;8.070;2022-08-16T07:33:04;6.90;;;4.30;;
30215;SDS011;17028;47.642;8.070;2022-08-16T07:38:06;5.78;;;5.03;;
30215;SDS011;17028;47.642;8.070;2022-08-16T07:43:17;6.35;;;5.07;;
30215;SDS011;17028;47.642;8.070;2022-08-16T07:48:18;7.53;;;5.20;;
30215;SDS011;17028;47.642;8.070;2022-08-16T07:53:24;7.57;;;4.80;;
30215;SDS011;17028;47.642;8.070;2022-08-16T08:03:30;6.57;;;5.10;;
30215;SDS011;17028;47.642;8.070;2022-08-16T08:08:32;7.70;;;5.47;;
30215;SDS011;17028;47.642;8.070;2022-08-16T08:13:34;6.80;;;5.70;;
30215;SDS011;17028;47.642;8.070;2022-08-16T08:18:36;7.40;;;5.43;;
30215;SDS011;17028;47.642;8.070;2022-08-16T08:23:37;6.50;;;5.40;;
30215;SDS011;17028;47.642;8.070;2022-08-16T08:28:39;6.72;;;4.20;;
30215;SDS011;17028;47.642;8.070;2022-08-16T08:33:41;6.78;;;4.25;;
30215;SDS011;17028;47.642;8.070;2022-08-16T08:38:44;5.80;;;4.00;;
30215;SDS011;17028;47.642;8.070;2022-08-16T08:43:46;6.45;;;4.20;;
30215;SDS011;17028;47.642;8.070;2022-08-16T08:48:50;6.18;;;3.65;;
30215;SDS011;17028;47.642;8.070;2022-08-16T08:53:53;6.28;;;4.07;;
30215;SDS011;17028;47.642;8.070;2022-08-16T08:58:54;7.13;;;4.35;;
30215;SDS011;17028;47.642;8.070;2022-08-16T09:04:04;5.22;;;3.78;;
30215;SDS011;17028;47.642;8.070;2022-08-16T09:09:06;5.15;;;3.05;;
30215;SDS011;17028;47.642;8.070;2022-08-16T09:14:09;5.68;;;3.42;;
30215;SDS011;17028;47.642;8.070;2022-08-16T09:19:10;5.57;;;3.67;;
30215;SDS011;17028;47.642;8.070;2022-08-16T09:24:12;4.10;;;3.25;;
30215;SDS011;17028;47.642;8.070;2022-08-16T09:29:14;5.55;;;3.30;;
30215;SDS011;17028;47.642;8.070;2022-08-16T09:34:15;4.72;;;3.40;;
30215;SDS011;17028;47.642;8.070;2022-08-16T09:39:17;5.63;;;3.20;;
30215;SDS011;17028;47.642;8.070;2022-08-16T09:44:18;4.63;;;3.38;;
30215;SDS011;17028;47.642;8.070;2022-08-16T09:49:20;5.72;;;3.53;;
30215;SDS011;17028;47.642;8.070;2022-08-16T09:54:23;5.70;;;3.13;;
30215;SDS011;17028;47.642;8.070;2022-08-16T09:59:26;5.68;;;3.10;;
30215;SDS011;17028;47.642;8.070;2022-08-16T10:04:27;4.47;;;3.20;;
30215;SDS011;17028;47.642;8.070;2022-08-16T10:09:28;4.63;;;2.97;;
30215;SDS011;17028;47.642;8.070;2022-08-16T10:14:29;5.35;;;3.13;;
30215;SDS011;17028;47.642;8.070;2022-08-16T10:19:31;7.40;;;3.03;;
30215;SDS011;17028;47.642;8.070;2022-08-16T10:24:33;5.15;;;3.20;;
30215;SDS011;17028;47.642;8.070;2022-08-16T10:29:34;4.72;;;3.13;;
30215;SDS011;17028;47.642;8.070;2022-08-16T10:34:35;7.28;;;3.35;;
30215;SDS011;17028;47.642;8.070;2022-08-16T10:39:36;4.38;;;2.83;;
30215;SDS011;17028;47.642;8.070;2022-08-16T10:44:39;4.20;;;2.75;;
30215;SDS011;17028;47.642;8.070;2022-08-16T10:49:41;5.47;;;2.95;;
30215;SDS011;17028;47.642;8.070;2022-08-16T10:54:42;6.78;;;3.28;;
30215;SDS011;17028;47.642;8.070;2022-08-16T10:59:43;6.82;;;3.40;;
30215;SDS011;17028;47.642;8.070;2022-08-16T11:04:44;3.97;;;3.03;;
30215;SDS011;17028;47.642;8.070;2022-08-16T11:09:45;6.85;;;2.78;;
30215;SDS011;17028;47.642;8.070;2022-08-16T11:14:46;6.40;;;2.60;;
30215;SDS011;17028;47.642;8.070;2022-08-16T11:19:47;5.07;;;3.00;;
30215;SDS011;17028;47.642;8.070;2022-08-16T11:24:48;4.97;;;2.95;;
30215;SDS011;17028;47.642;8.070;2022-08-16T11:29:51;5.25;;;2.70;;
30215;SDS011;17028;47.642;8.070;2022-08-16T11:34:53;4.57;;;2.70;;
30215;SDS011;17028;47.642;8.070;2022-08-16T11:39:56;3.38;;;2.60;;
30215;SDS011;17028;47.642;8.070;2022-08-16T11:44:57;5.05;;;2.70;;
30215;SDS011;17028;47.642;8.070;2022-08-16T11:49:58;10.75;;;2.67;;
30215;SDS011;17028;47.642;8.070;2022-08-16T11:55:00;4.78;;;2.63;;
30215;SDS011;17028;47.642;8.070;2022-08-16T12:00:10;5.28;;;2.83;;
30215;SDS011;17028;47.642;8.070;2022-08-16T12:05:15;5.80;;;2.50;;
30215;SDS011;17028;47.642;8.070;2022-08-16T12:10:17;4.25;;;2.50;;
30215;SDS011;17028;47.642;8.070;2022-08-16T12:15:19;6.82;;;2.88;;
30215;SDS011;17028;47.642;8.070;2022-08-16T12:20:25;6.45;;;2.90;;
30215;SDS011;17028;47.642;8.070;2022-08-16T12:25:28;5.90;;;2.85;;
30215;SDS011;17028;47.642;8.070;2022-08-16T12:30:32;4.28;;;2.55;;
30215;SDS011;17028;47.642;8.070;2022-08-16T12:35:36;6.18;;;3.20;;
30215;SDS011;17028;47.642;8.070;2022-08-16T12:40:41;3.97;;;2.80;;
30215;SDS011;17028;47.642;8.070;2022-08-16T12:45:45;5.32;;;2.78;;
30215;SDS011;17028;47.642;8.070;2022-08-16T12:55:49;9.98;;;2.53;;
30215;SDS011;17028;47.642;8.070;2022-08-16T13:00:50;5.18;;;2.97;;
30215;SDS011;17028;47.642;8.070;2022-08-16T13:05:51;5.53;;;2.58;;
30215;SDS011;17028;47.642;8.070;2022-08-16T13:10:52;3.72;;;2.67;;
30215;SDS011;17028;47.642;8.070;2022-08-16T13:15:55;4.15;;;2.60;;
30215;SDS011;17028;47.642;8.070;2022-08-16T13:20:57;7.38;;;2.88;;
30215;SDS011;17028;47.642;8.070;2022-08-16T13:25:58;4.75;;;2.60;;
30215;SDS011;17028;47.642;8.070;2022-08-16T13:31:00;4.88;;;2.80;;
30215;SDS011;17028;47.642;8.070;2022-08-16T13:36:02;3.72;;;2.50;;
30215;SDS011;17028;47.642;8.070;2022-08-16T13:41:09;4.18;;;2.50;;
30215;SDS011;17028;47.642;8.070;2022-08-16T13:46:11;4.88;;;2.45;;
30215;SDS011;17028;47.642;8.070;2022-08-16T13:51:13;4.43;;;2.17;;
30215;SDS011;17028;47.642;8.070;2022-08-16T13:56:16;3.72;;;2.25;;
30215;SDS011;17028;47.642;8.070;2022-08-16T14:01:18;5.03;;;2.50;;
30215;SDS011;17028;47.642;8.070;2022-08-16T14:06:20;4.55;;;2.20;;
30215;SDS011;17028;47.642;8.070;2022-08-16T14:11:21;4.43;;;2.60;;
30215;SDS011;17028;47.642;8.070;2022-08-16T14:16:22;5.75;;;2.50;;
30215;SDS011;17028;47.642;8.070;2022-08-16T14:21:23;4.00;;;2.25;;
30215;SDS011;17028;47.642;8.070;2022-08-16T14:26:24;4.40;;;2.20;;
30215;SDS011;17028;47.642;8.070;2022-08-16T14:31:26;3.30;;;2.10;;
30215;SDS011;17028;47.642;8.070;2022-08-16T14:36:27;4.32;;;2.47;;
30215;SDS011;17028;47.642;8.070;2022-08-16T14:41:29;3.70;;;2.40;;
30215;SDS011;17028;47.642;8.070;2022-08-16T14:46:30;4.18;;;2.42;;
30215;SDS011;17028;47.642;8.070;2022-08-16T14:51:31;4.65;;;2.60;;
30215;SDS011;17028;47.642;8.070;2022-08-16T14:56:32;3.65;;;2.50;;
30215;SDS011;17028;47.642;8.070;2022-08-16T15:01:33;3.67;;;2.42;;
30215;SDS011;17028;47.642;8.070;2022-08-16T15:06:34;3.42;;;2.40;;
30215;SDS011;17028;47.642;8.070;2022-08-16T15:11:35;3.50;;;2.38;;
30215;SDS011;17028;47.642;8.070;2022-08-16T15:16:36;3.70;;;2.22;;
30215;SDS011;17028;47.642;8.070;2022-08-16T15:21:38;3.35;;;2.22;;
30215;SDS011;17028;47.642;8.070;2022-08-16T15:26:39;3.92;;;2.67;;
30215;SDS011;17028;47.642;8.070;2022-08-16T15:31:40;4.85;;;2.80;;
30215;SDS011;17028;47.642;8.070;2022-08-16T15:36:43;3.03;;;2.20;;
30215;SDS011;17028;47.642;8.070;2022-08-16T15:46:45;3.92;;;2.58;;
30215;SDS011;17028;47.642;8.070;2022-08-16T15:51:46;3.70;;;2.50;;
30215;SDS011;17028;47.642;8.070;2022-08-16T15:56:47;3.45;;;2.10;;
30215;SDS011;17028;47.642;8.070;2022-08-16T16:01:51;3.65;;;2.63;;
30215;SDS011;17028;47.642;8.070;2022-08-16T16:06:52;3.60;;;2.25;;
30215;SDS011;17028;47.642;8.070;2022-08-16T16:11:53;3.97;;;2.70;;
30215;SDS011;17028;47.642;8.070;2022-08-16T16:16:54;3.67;;;2.50;;
30215;SDS011;17028;47.642;8.070;2022-08-16T16:21:56;3.88;;;2.45;;
30215;SDS011;17028;47.642;8.070;2022-08-16T16:26:58;5.43;;;2.83;;
30215;SDS011;17028;47.642;8.070;2022-08-16T16:31:59;6.45;;;2.80;;
30215;SDS011;17028;47.642;8.070;2022-08-16T16:37:04;4.15;;;2.30;;
30215;SDS011;17028;47.642;8.070;2022-08-16T16:42:05;3.38;;;2.35;;
30215;SDS011;17028;47.642;8.070;2022-08-16T16:47:06;3.42;;;2.35;;
30215;SDS011;17028;47.642;8.070;2022-08-16T16:52:08;4.28;;;2.50;;
30215;SDS011;17028;47.642;8.070;2022-08-16T16:57:13;4.60;;;2.50;;
30215;SDS011;17028;47.642;8.070;2022-08-16T17:02:34;4.68;;;2.70;;
30215;SDS011;17028;47.642;8.070;2022-08-16T17:07:36;3.65;;;2.42;;
30215;SDS011;17028;47.642;8.070;2022-08-16T17:12:37;4.78;;;2.53;;
30215;SDS011;17028;47.642;8.070;2022-08-16T17:17:38;3.95;;;2.30;;
30215;SDS011;17028;47.642;8.070;2022-08-16T17:22:39;3.10;;;2.13;;
30215;SDS011;17028;47.642;8.070;2022-08-16T17:27:40;3.60;;;2.40;;
30215;SDS011;17028;47.642;8.070;2022-08-16T17:32:42;3.97;;;2.67;;
30215;SDS011;17028;47.642;8.070;2022-08-16T17:37:46;4.07;;;2.78;;
30215;SDS011;17028;47.642;8.070;2022-08-16T17:42:50;3.38;;;2.50;;
30215;SDS011;17028;47.642;8.070;2022-08-16T17:52:53;4.18;;;2.53;;
30215;SDS011;17028;47.642;8.070;2022-08-16T17:57:55;4.22;;;2.72;;
30215;SDS011;17028;47.642;8.070;2022-08-16T18:02:56;3.90;;;2.50;;
30215;SDS011;17028;47.642;8.070;2022-08-16T18:07:58;4.38;;;2.72;;
30215;SDS011;17028;47.642;8.070;2022-08-16T18:12:59;8.02;;;5.07;;
30215;SDS011;17028;47.642;8.070;2022-08-16T18:18:01;5.10;;;4.05;;
30215;SDS011;17028;47.642;8.070;2022-08-16T18:23:03;3.78;;;3.05;;
30215;SDS011;17028;47.642;8.070;2022-08-16T18:28:14;3.35;;;2.65;;
30215;SDS011;17028;47.642;8.070;2022-08-16T18:33:15;2.67;;;2.20;;
30215;SDS011;17028;47.642;8.070;2022-08-16T18:38:17;3.70;;;2.33;;
30215;SDS011;17028;47.642;8.070;2022-08-16T18:43:19;3.50;;;2.00;;
30215;SDS011;17028;47.642;8.070;2022-08-16T18:48:22;3.25;;;2.25;;
30215;SDS011;17028;47.642;8.070;2022-08-16T18:53:27;3.85;;;2.40;;
30215;SDS011;17028;47.642;8.070;2022-08-16T18:58:29;2.70;;;2.00;;
30215;SDS011;17028;47.642;8.070;2022-08-16T19:03:30;2.60;;;1.92;;
30215;SDS011;17028;47.642;8.070;2022-08-16T19:08:32;2.80;;;1.95;;
30215;SDS011;17028;47.642;8.070;2022-08-16T19:13:36;2.33;;;1.83;;
30215;SDS011;17028;47.642;8.070;2022-08-16T19:18:40;2.47;;;1.80;;
30215;SDS011;17028;47.642;8.070;2022-08-16T19:23:41;2.35;;;1.77;;
30215;SDS011;17028;47.642;8.070;2022-08-16T19:28:44;3.10;;;2.10;;
30215;SDS011;17028;47.642;8.070;2022-08-16T19:33:48;3.30;;;2.08;;
30215;SDS011;17028;47.642;8.070;2022-08-16T19:38:54;3.03;;;2.08;;
30215;SDS011;17028;47.642;8.070;2022-08-16T19:43:55;3.13;;;2.17;;
30215;SDS011;17028;47.642;8.070;2022-08-16T19:48:56;3.33;;;2.22;;
30215;SDS011;17028;47.642;8.070;2022-08-16T19:53:57;3.40;;;2.50;;
30215;SDS011;17028;47.642;8.070;2022-08-16T19:58:59;4.55;;;2.10;;
30215;SDS011;17028;47.642;8.070;2022-08-16T20:04:00;3.60;;;2.47;;
30215;SDS011;17028;47.642;8.070;2022-08-16T20:09:02;3.75;;;2.80;;
30215;SDS011;17028;47.642;8.070;2022-08-16T20:14:04;3.22;;;2.55;;
30215;SDS011;17028;47.642;8.070;2022-08-16T20:19:05;3.95;;;2.83;;
30215;SDS011;17028;47.642;8.070;2022-08-16T20:24:06;4.32;;;3.10;;
30215;SDS011;17028;47.642;8.070;2022-08-16T20:29:07;4.25;;;2.45;;
30215;SDS011;17028;47.642;8.070;2022-08-16T20:34:08;3.72;;;2.53;;
30215;SDS011;17028;47.642;8.070;2022-08-16T20:39:10;3.58;;;2.42;;
30215;SDS011;17028;47.642;8.070;2022-08-16T20:44:14;3.80;;;2.80;;
30215;SDS011;17028;47.642;8.070;2022-08-16T20:49:15;3.60;;;2.35;;
30215;SDS011;17028;47.642;8.070;2022-08-16T20:54:17;3.05;;;2.13;;
30215;SDS011;17028;47.642;8.070;2022-08-16T20:59:18;3.45;;;2.47;;
30215;SDS011;17028;47.642;8.070;2022-08-16T21:04:20;2.95;;;2.05;;
30215;SDS011;17028;47.642;8.070;2022-08-16T21:09:25;4.45;;;2.83;;
30215;SDS011;17028;47.642;8.070;2022-08-16T21:14:28;4.03;;;2.80;;
30215;SDS011;17028;47.642;8.070;2022-08-16T21:19:31;4.68;;;3.20;;
30215;SDS011;17028;47.642;8.070;2022-08-16T21:24:33;4.60;;;3.13;;
30215;SDS011;17028;47.642;8.070;2022-08-16T21:29:34;5.05;;;3.03;;
30215;SDS011;17028;47.642;8.070;2022-08-16T21:34:36;5.78;;;2.97;;
30215;SDS011;17028;47.642;8.070;2022-08-16T21:39:37;4.78;;;3.10;;
30215;SDS011;17028;47.642;8.070;2022-08-16T21:44:39;5.38;;;3.30;;
30215;SDS011;17028;47.642;8.070;2022-08-16T21:49:41;5.45;;;3.35;;
30215;SDS011;17028;47.642;8.070;2022-08-16T21:54:42;6.32;;;3.20;;
30215;SDS011;17028;47.642;8.070;2022-08-16T21:59:43;5.32;;;3.30;;
30215;SDS011;17028;47.642;8.070;2022-08-16T22:04:44;4.20;;;3.30;;
30215;SDS011;17028;47.642;8.070;2022-08-16T22:09:46;4.85;;;3.10;;
30215;SDS011;17028;47.642;8.070;2022-08-16T22:14:49;4.85;;;3.47;;
30215;SDS011;17028;47.642;8.070;2022-08-16T22:19:51;4.68;;;3.03;;
30215;SDS011;17028;47.642;8.070;2022-08-16T22:24:53;4.90;;;3.10;;
30215;SDS011;17028;47.642;8.070;2022-08-16T22:29:54;6.07;;;3.47;;
30215;SDS011;17028;47.642;8.070;2022-08-16T22:34:57;5.65;;;3.83;;
30215;SDS011;17028;47.642;8.070;2022-08-16T22:40:01;5.75;;;3.47;;
30215;SDS011;17028;47.642;8.070;2022-08-16T22:45:03;5.15;;;3.45;;
30215;SDS011;17028;47.642;8.070;2022-08-16T22:50:05;4.50;;;3.08;;
30215;SDS011;17028;47.642;8.070;2022-08-16T22:55:06;4.30;;;3.30;;
30215;SDS011;17028;47.642;8.070;2022-08-16T23:00:08;4.88;;;3.50;;
30215;SDS011;17028;47.642;8.070;2022-08-16T23:05:15;4.57;;;3.45;;
30215;SDS011;17028;47.642;8.070;2022-08-16T23:10:17;4.77;;;3.50;;
30215;SDS011;17028;47.642;8.070;2022-08-16T23:15:19;4.10;;;3.10;;
30215;SDS011;17028;47.642;8.070;2022-08-16T23:20:24;3.97;;;3.10;;
30215;SDS011;17028;47.642;8.070;2022-08-16T23:25:29;4.90;;;3.38;;
30215;SDS011;17028;47.642;8.070;2022-08-16T23:30:33;3.60;;;2.63;;
30215;SDS011;17028;47.642;8.070;2022-08-16T23:35:40;4.45;;;3.38;;
30215;SDS011;17028;47.642;8.070;2022-08-16T23:40:43;5.10;;;3.17;;
30215;SDS011;17028;47.642;8.070;2022-08-16T23:45:45;5.97;;;3.58;;
30215;SDS011;17028;47.642;8.070;2022-08-16T23:50:49;4.68;;;3.35;;
30215;SDS011;17028;47.642;8.070;2022-08-16T23:55:56;4.70;;;3.20;;
